createdAt,value
2019-02-10T00:02:19.223Z,95470.27
2019-02-10T00:04:49.044Z,95471.69
2019-02-10T00:07:18.565Z,95471.69
2019-02-10T00:09:48.246Z,95468.04
2019-02-10T00:12:17.828Z,95470.05
2019-02-10T00:14:47.629Z,95471.92
2019-02-10T00:17:17.552Z,95473.35
2019-02-10T00:19:47.128Z,95470.22
2019-02-10T00:22:16.800Z,95474.23
2019-02-10T00:24:46.510Z,95474.27
2019-02-10T00:27:16.127Z,95479.11
2019-02-10T00:29:45.730Z,95475.80
2019-02-10T00:32:15.263Z,95488.58
2019-02-10T00:34:44.962Z,95473.30
2019-02-10T00:37:14.727Z,95491.80
2019-02-10T00:39:44.309Z,95489.19
2019-02-10T00:42:14.119Z,95481.16
2019-02-10T00:44:43.704Z,95487.55
2019-02-10T00:47:13.198Z,95479.08
2019-02-10T00:49:42.823Z,95479.80
2019-02-10T00:52:12.633Z,95474.69
2019-02-10T00:54:42.467Z,95473.41
2019-02-10T00:57:12.195Z,95473.41
2019-02-10T00:59:41.849Z,95473.55
2019-02-10T01:02:11.442Z,95472.87
2019-02-10T01:04:41.063Z,95468.36
2019-02-10T01:07:10.788Z,95461.83
2019-02-10T01:09:40.658Z,95458.61
2019-02-10T01:12:10.489Z,95460.78
2019-02-10T01:14:40.127Z,95465.66
2019-02-10T01:17:09.847Z,95459.89
2019-02-10T01:19:39.373Z,95464.99
2019-02-10T01:22:09.970Z,95467.42
2019-02-10T01:24:39.425Z,95465.81
2019-02-10T01:27:09.001Z,95456.64
2019-02-10T01:29:38.735Z,95455.98
2019-02-10T01:32:08.417Z,95450.90
2019-02-10T01:34:38.035Z,95456.45
2019-02-10T01:37:07.637Z,95449.13
2019-02-10T01:39:37.286Z,95451.34
2019-02-10T01:42:07.113Z,95455.26
2019-02-10T01:44:36.646Z,95457.25
2019-02-10T01:47:06.265Z,95457.82
2019-02-10T01:49:35.985Z,95456.97
2019-02-10T01:52:05.819Z,95445.13
2019-02-10T01:54:35.490Z,95448.67
2019-02-10T01:57:05.236Z,95450.87
2019-02-10T01:59:34.885Z,95449.92
2019-02-10T02:02:04.528Z,95455.69
2019-02-10T02:04:34.033Z,95456.11
2019-02-10T02:07:03.629Z,95459.00
2019-02-10T02:09:33.253Z,95456.81
2019-02-10T02:12:03.255Z,95463.53
2019-02-10T02:14:32.924Z,95458.17
2019-02-10T02:17:02.629Z,95457.98
2019-02-10T02:19:32.310Z,95450.98
2019-02-10T02:22:01.981Z,95455.95
2019-02-10T02:24:31.568Z,95457.48
2019-02-10T02:27:01.488Z,95455.11
2019-02-10T02:29:31.175Z,95453.17
2019-02-10T02:32:00.931Z,95442.32
2019-02-10T02:34:30.677Z,95448.73
2019-02-10T02:37:08.054Z,95435.35
2019-02-10T02:39:33.513Z,95437.16
2019-02-10T02:42:03.179Z,95441.36
2019-02-10T02:44:33.447Z,95442.17
2019-02-10T02:47:03.200Z,95436.45
2019-02-10T02:49:32.874Z,95439.61
2019-02-10T02:52:02.522Z,95436.34
2019-02-10T02:54:32.285Z,95438.40
2019-02-10T02:57:01.924Z,95440.01
2019-02-10T02:59:31.429Z,95442.70
2019-02-10T03:02:01.054Z,95445.12
2019-02-10T03:04:30.739Z,95449.92
2019-02-10T03:07:00.534Z,95453.72
2019-02-10T03:09:30.297Z,95447.11
2019-02-10T03:11:59.901Z,95451.58
2019-02-10T03:14:29.686Z,95461.38
2019-02-10T03:16:59.160Z,95448.61
2019-02-10T03:19:28.817Z,95451.11
2019-02-10T03:21:58.451Z,95445.56
2019-02-10T03:24:28.025Z,95443.22
2019-02-10T03:26:57.711Z,95446.00
2019-02-10T03:29:27.361Z,95441.04
2019-02-10T03:31:57.112Z,95440.70
2019-02-10T03:34:26.878Z,95439.83
2019-02-10T03:36:56.461Z,95425.27
2019-02-10T03:39:26.342Z,95430.47
2019-02-10T03:41:55.903Z,95429.36
2019-02-10T03:44:25.569Z,95432.62
2019-02-10T03:46:55.282Z,95432.68
2019-02-10T03:49:25.077Z,95432.41
2019-02-10T03:51:54.820Z,95436.61
2019-02-10T03:54:24.642Z,95435.80
2019-02-10T03:56:54.284Z,95438.86
2019-02-10T03:59:24.037Z,95450.03
2019-02-10T04:01:53.753Z,95463.77
2019-02-10T04:04:23.341Z,95460.98
2019-02-10T04:06:53.014Z,95455.70
2019-02-10T04:09:22.692Z,95456.25
2019-02-10T04:11:52.376Z,95457.53
2019-02-10T04:14:22.019Z,95455.70
2019-02-10T04:16:51.631Z,95447.39
2019-02-10T04:19:21.251Z,95445.09
2019-02-10T04:21:50.961Z,95453.63
2019-02-10T04:24:20.754Z,95451.68
2019-02-10T04:26:50.431Z,95460.04
2019-02-10T04:29:20.030Z,95458.67
2019-02-10T04:31:49.781Z,95444.63
2019-02-10T04:34:19.406Z,95447.58
2019-02-10T04:36:48.934Z,95441.20
2019-02-10T04:39:18.713Z,95450.51
2019-02-10T04:41:48.398Z,95445.20
2019-02-10T04:44:18.069Z,95450.58
2019-02-10T04:46:47.725Z,95453.45
2019-02-10T04:49:17.417Z,95454.29
2019-02-10T04:51:47.190Z,95446.08
2019-02-10T04:54:16.782Z,95447.09
2019-02-10T04:56:46.401Z,95450.51
2019-02-10T04:59:16.129Z,95438.62
2019-02-10T05:01:45.848Z,95454.17
2019-02-10T05:04:15.565Z,95453.19
2019-02-10T05:06:45.202Z,95454.84
2019-02-10T05:09:14.902Z,95448.83
2019-02-10T05:11:44.849Z,95453.47
2019-02-10T05:14:14.524Z,95463.03
2019-02-10T05:16:45.014Z,95474.24
2019-02-10T05:19:14.797Z,95471.31
2019-02-10T05:21:44.458Z,95480.52
2019-02-10T05:24:14.055Z,95479.11
2019-02-10T05:26:43.681Z,95483.05
2019-02-10T05:29:13.361Z,95480.97
2019-02-10T05:31:43.018Z,95473.08
2019-02-10T05:34:12.518Z,95481.50
2019-02-10T05:36:42.228Z,95492.45
2019-02-10T05:39:11.843Z,95486.94
2019-02-10T05:41:41.492Z,95487.55
2019-02-10T05:44:11.255Z,95491.86
2019-02-10T05:46:40.874Z,95485.91
2019-02-10T05:49:10.465Z,95485.17
2019-02-10T05:51:40.127Z,95489.00
2019-02-10T05:54:09.650Z,95487.19
2019-02-10T05:56:39.179Z,95490.33
2019-02-10T05:59:08.957Z,95490.85
2019-02-10T06:01:59.128Z,95495.45
2019-02-10T06:04:29.222Z,95492.75
2019-02-10T06:07:01.056Z,95499.17
2019-02-10T06:09:30.790Z,95501.35
2019-02-10T06:12:00.294Z,95499.27
2019-02-10T06:14:30.534Z,95508.25
2019-02-10T06:17:00.391Z,95510.38
2019-02-10T06:19:30.042Z,95508.08
2019-02-10T06:21:59.786Z,95504.23
2019-02-10T06:24:29.399Z,95512.66
2019-02-10T06:26:59.059Z,95512.52
2019-02-10T06:29:28.852Z,95513.84
2019-02-10T06:31:58.440Z,95517.97
2019-02-10T06:34:28.163Z,95522.09
2019-02-10T06:36:57.781Z,95519.56
2019-02-10T06:39:27.564Z,95514.63
2019-02-10T06:41:57.134Z,95506.59
2019-02-10T06:44:26.903Z,95506.59
2019-02-10T06:46:56.659Z,95506.21
2019-02-10T06:49:26.275Z,95506.28
2019-02-10T06:51:55.797Z,95514.44
2019-02-10T06:54:25.496Z,95509.40
2019-02-10T06:56:55.214Z,95520.22
2019-02-10T06:59:56.239Z,95508.91
2019-02-10T07:02:35.432Z,95516.20
2019-02-10T07:05:05.581Z,95508.76
2019-02-10T07:07:35.351Z,95507.27
2019-02-10T07:10:05.438Z,95507.16
2019-02-10T07:12:50.945Z,95502.80
2019-02-10T07:15:56.152Z,95509.73
2019-02-10T07:19:01.403Z,95510.56
2019-02-10T07:21:40.424Z,95510.67
2019-02-10T07:24:38.944Z,95512.53
2019-02-10T07:27:29.126Z,95513.48
2019-02-10T07:30:40.842Z,95505.03
2019-02-10T07:33:20.603Z,95518.20
2019-02-10T07:36:06.640Z,95509.20
2019-02-10T07:39:17.322Z,95516.19
2019-02-10T07:42:22.371Z,95514.10
2019-02-10T07:45:14.272Z,95511.63
2019-02-10T07:48:10.039Z,95512.95
2019-02-10T07:51:16.175Z,95513.83
2019-02-10T07:54:13.559Z,95507.07
2019-02-10T07:56:58.454Z,95501.67
2019-02-10T08:00:27.105Z,95499.50
2019-02-10T08:03:28.540Z,95502.91
2019-02-10T08:06:21.225Z,95504.83
2019-02-10T08:09:27.331Z,95501.14
2019-02-10T08:12:49.830Z,95504.16
2019-02-10T08:15:53.593Z,95504.92
2019-02-10T08:19:19.324Z,95501.38
2019-02-10T08:22:16.392Z,95497.14
2019-02-10T08:25:38.908Z,95496.08
2019-02-10T08:28:34.305Z,95492.23
2019-02-10T08:31:40.337Z,95491.14
2019-02-10T08:34:20.950Z,95495.03
2019-02-10T08:37:30.412Z,95495.80
2019-02-10T08:40:29.986Z,95497.83
2019-02-10T08:43:32.695Z,95494.95
2019-02-10T08:47:04.495Z,95498.86
2019-02-10T08:50:09.710Z,95492.30
2019-02-10T08:52:51.766Z,95489.44
2019-02-10T08:55:17.326Z,95495.98
2019-02-10T08:57:47.014Z,95491.09
2019-02-10T09:00:16.646Z,95488.08
2019-02-10T09:02:46.294Z,95494.23
2019-02-10T09:05:15.902Z,95483.84
2019-02-10T09:07:45.518Z,95488.20
2019-02-10T09:10:15.250Z,95487.30
2019-02-10T09:12:44.869Z,95485.88
2019-02-10T09:15:14.649Z,95484.91
2019-02-10T09:17:44.360Z,95484.38
2019-02-10T09:20:14.119Z,95484.83
2019-02-10T09:22:43.737Z,95488.85
2019-02-10T09:25:13.453Z,95482.30
2019-02-10T09:27:43.148Z,95479.39
2019-02-10T09:30:14.100Z,95476.09
2019-02-10T09:32:43.751Z,95480.09
2019-02-10T09:35:13.791Z,95474.33
2019-02-10T09:37:43.281Z,95475.69
2019-02-10T09:40:13.248Z,95475.64
2019-02-10T09:42:44.555Z,95471.73
2019-02-10T09:45:16.116Z,95467.05
2019-02-10T09:47:45.851Z,95464.36
2019-02-10T09:50:17.806Z,95463.33
2019-02-10T09:52:47.552Z,95457.33
2019-02-10T09:55:17.246Z,95461.42
2019-02-10T09:57:46.940Z,95456.07
2019-02-10T10:00:16.720Z,95452.66
2019-02-10T10:02:46.376Z,95451.69
2019-02-10T10:05:15.990Z,95449.20
2019-02-10T10:07:45.814Z,95443.34
2019-02-10T10:10:15.660Z,95438.78
2019-02-10T10:12:45.452Z,95435.88
2019-02-10T10:15:17.134Z,95436.37
2019-02-10T10:17:46.817Z,95425.54
2019-02-10T10:20:17.317Z,95420.52
2019-02-10T10:22:47.932Z,95415.14
2019-02-10T10:25:17.629Z,95412.99
2019-02-10T10:27:47.528Z,95397.67
2019-02-10T10:30:17.592Z,95403.52
2019-02-10T10:32:47.403Z,95400.88
2019-02-10T10:35:17.283Z,95396.53
2019-02-10T10:37:49.933Z,95392.59
2019-02-10T10:40:19.754Z,95387.84
2019-02-10T10:42:49.394Z,95386.62
2019-02-10T10:45:18.880Z,95380.87
2019-02-10T10:47:48.522Z,95378.27
2019-02-10T10:50:18.122Z,95372.61
2019-02-10T10:52:47.874Z,95372.58
2019-02-10T10:55:17.543Z,95368.47
2019-02-10T10:57:47.426Z,95365.73
2019-02-10T11:00:17.071Z,95361.72
2019-02-10T11:02:46.779Z,95364.36
2019-02-10T11:05:16.473Z,95355.36
2019-02-10T11:07:46.048Z,95348.47
2019-02-10T11:10:15.883Z,95343.44
2019-02-10T11:12:45.637Z,95345.20
2019-02-10T11:15:15.442Z,95339.63
2019-02-10T11:17:45.240Z,95332.42
2019-02-10T11:20:14.936Z,95332.22
2019-02-10T11:22:44.702Z,95326.14
2019-02-10T11:25:14.402Z,95321.50
2019-02-10T11:27:44.569Z,95329.01
2019-02-10T11:30:14.493Z,95323.34
2019-02-10T11:32:44.308Z,95324.05
2019-02-10T11:35:13.864Z,95314.74
2019-02-10T11:37:43.459Z,95316.13
2019-02-10T11:40:13.344Z,95310.39
2019-02-10T11:42:42.939Z,95306.50
2019-02-10T11:45:12.568Z,95305.77
2019-02-10T11:47:42.123Z,95297.48
2019-02-10T11:50:11.987Z,95294.38
2019-02-10T11:52:41.790Z,95292.05
2019-02-10T11:55:12.225Z,95292.90
2019-02-10T11:57:41.920Z,95286.49
2019-02-10T12:00:12.281Z,95280.28
2019-02-10T12:02:41.888Z,95275.78
2019-02-10T12:05:11.962Z,95274.89
2019-02-10T12:07:41.668Z,95273.27
2019-02-10T12:10:11.672Z,95268.87
2019-02-10T12:12:41.285Z,95265.11
2019-02-10T12:15:11.279Z,95267.23
2019-02-10T12:17:40.938Z,95254.59
2019-02-10T12:20:11.238Z,95256.17
2019-02-10T12:22:40.880Z,95247.70
2019-02-10T12:25:11.250Z,95244.66
2019-02-10T12:27:40.939Z,95242.89
2019-02-10T12:30:12.611Z,95240.92
2019-02-10T12:32:42.380Z,95234.52
2019-02-10T12:35:12.121Z,95240.16
2019-02-10T12:37:41.662Z,95236.72
2019-02-10T12:40:11.837Z,95226.48
2019-02-10T12:42:41.555Z,95221.63
2019-02-10T12:45:11.469Z,95217.45
2019-02-10T12:47:41.138Z,95214.68
2019-02-10T12:50:11.541Z,95213.09
2019-02-10T12:52:41.204Z,95208.90
2019-02-10T12:55:11.111Z,95212.83
2019-02-10T12:57:40.661Z,95205.76
2019-02-10T13:00:13.195Z,95194.88
2019-02-10T13:02:42.951Z,95191.06
2019-02-10T13:05:12.578Z,95182.77
2019-02-10T13:07:42.316Z,95185.81
2019-02-10T13:10:13.020Z,95186.01
2019-02-10T13:12:42.510Z,95185.77
2019-02-10T13:15:12.235Z,95192.92
2019-02-10T13:17:42.136Z,95193.53
2019-02-10T13:20:11.865Z,95190.86
2019-02-10T13:22:41.628Z,95182.44
2019-02-10T13:25:11.426Z,95177.81
2019-02-10T13:27:41.139Z,95180.61
2019-02-10T13:30:12.449Z,95186.23
2019-02-10T13:32:42.146Z,95181.47
2019-02-10T13:35:12.092Z,95179.66
2019-02-10T13:37:41.695Z,95178.48
2019-02-10T13:40:16.711Z,95182.97
2019-02-10T13:42:45.874Z,95177.56
2019-02-10T13:45:15.554Z,95179.70
2019-02-10T13:47:45.109Z,95171.20
2019-02-10T13:50:15.836Z,95173.91
2019-02-10T13:52:45.515Z,95166.36
2019-02-10T13:55:15.340Z,95167.84
2019-02-10T13:57:45.105Z,95169.28
2019-02-10T14:00:16.790Z,95164.39
2019-02-10T14:02:46.462Z,95164.16
2019-02-10T14:05:16.210Z,95161.44
2019-02-10T14:07:45.938Z,95164.27
2019-02-10T14:10:16.107Z,95159.78
2019-02-10T14:12:45.866Z,95156.66
2019-02-10T14:15:15.880Z,95160.48
2019-02-10T14:17:45.569Z,95155.46
2019-02-10T14:20:16.413Z,95156.77
2019-02-10T14:22:46.257Z,95151.88
2019-02-10T14:25:16.015Z,95148.41
2019-02-10T14:27:45.915Z,95145.46
2019-02-10T14:30:17.090Z,95137.81
2019-02-10T14:32:47.116Z,95137.53
2019-02-10T14:35:17.142Z,95141.52
2019-02-10T14:37:47.911Z,95144.17
2019-02-10T14:40:18.088Z,95136.95
2019-02-10T14:42:48.844Z,95131.92
2019-02-10T14:45:19.641Z,95128.11
2019-02-10T14:47:49.993Z,95127.76
2019-02-10T14:50:21.801Z,95130.77
2019-02-10T14:52:52.848Z,95130.07
2019-02-10T14:55:23.674Z,95126.32
2019-02-10T14:57:54.179Z,95130.42
2019-02-10T15:00:25.109Z,95131.72
2019-02-10T15:02:56.817Z,95132.52
2019-02-10T15:05:27.094Z,95125.49
2019-02-10T15:07:56.948Z,95121.80
2019-02-10T15:10:26.952Z,95122.00
2019-02-10T15:12:57.059Z,95121.77
2019-02-10T15:15:27.133Z,95123.00
2019-02-10T15:17:57.293Z,95120.31
2019-02-10T15:20:27.354Z,95115.81
2019-02-10T15:22:57.508Z,95115.63
2019-02-10T15:25:28.171Z,95117.44
2019-02-10T15:27:58.308Z,95114.70
2019-02-10T15:30:28.566Z,95115.02
2019-02-10T15:32:58.602Z,95110.81
2019-02-10T15:35:28.388Z,95113.34
2019-02-10T15:37:58.258Z,95104.84
2019-02-10T15:40:28.686Z,95104.16
2019-02-10T15:42:59.287Z,95105.36
2019-02-10T15:45:30.066Z,95106.67
2019-02-10T15:48:00.134Z,95112.73
2019-02-10T15:50:30.426Z,95107.92
2019-02-10T15:53:02.100Z,95100.05
2019-02-10T15:55:32.155Z,95095.15
2019-02-10T15:58:02.811Z,95101.02
2019-02-10T16:00:33.476Z,95101.42
2019-02-10T16:03:04.594Z,95104.55
2019-02-10T16:05:35.622Z,95115.77
2019-02-10T16:08:06.723Z,95109.55
2019-02-10T16:10:37.304Z,95112.30
2019-02-10T16:13:08.293Z,95102.13
2019-02-10T16:15:38.952Z,95105.86
2019-02-10T16:18:10.350Z,95108.02
2019-02-10T16:20:40.929Z,95101.39
2019-02-10T16:23:11.809Z,95105.66
2019-02-10T16:25:42.865Z,95106.95
2019-02-10T16:28:13.762Z,95114.47
2019-02-10T16:30:44.781Z,95110.95
2019-02-10T16:33:15.764Z,95106.75
2019-02-10T16:35:47.184Z,95106.45
2019-02-10T16:38:18.326Z,95099.19
2019-02-10T16:40:49.677Z,95098.31
2019-02-10T16:43:21.025Z,95104.89
2019-02-10T16:45:52.021Z,95107.69
2019-02-10T16:48:23.226Z,95112.20
2019-02-10T16:50:54.834Z,95096.38
2019-02-10T16:53:25.757Z,95106.34
2019-02-10T16:55:56.812Z,95097.79
2019-02-10T16:58:27.899Z,95089.41
2019-02-10T17:00:58.590Z,95089.03
2019-02-10T17:03:29.222Z,95092.61
2019-02-10T17:06:00.067Z,95100.56
2019-02-10T17:08:31.025Z,95091.33
2019-02-10T17:11:01.789Z,95080.58
2019-02-10T17:13:32.761Z,95090.33
2019-02-10T17:16:05.350Z,95088.53
2019-02-10T17:18:36.316Z,95091.11
2019-02-10T17:21:07.481Z,95082.78
2019-02-10T17:23:38.790Z,95084.96
2019-02-10T17:26:09.798Z,95080.67
2019-02-10T17:28:40.899Z,95080.47
2019-02-10T17:31:11.992Z,95073.11
2019-02-10T17:33:43.232Z,95075.50
2019-02-10T17:36:14.236Z,95078.31
2019-02-10T17:38:45.180Z,95072.02
2019-02-10T17:41:23.133Z,95077.91
2019-02-10T17:43:54.401Z,95068.66
2019-02-10T17:46:25.565Z,95066.16
2019-02-10T17:48:58.073Z,95070.42
2019-02-10T17:51:29.370Z,95067.75
2019-02-10T17:54:00.420Z,95061.37
2019-02-10T17:56:31.611Z,95058.79
2019-02-10T17:59:02.570Z,95060.50
2019-02-10T18:01:33.851Z,95055.41
2019-02-10T18:04:05.148Z,95058.48
2019-02-10T18:06:37.272Z,95056.20
2019-02-10T18:09:09.312Z,95059.94
2019-02-10T18:11:41.924Z,95059.94
2019-02-10T18:14:35.190Z,95052.19
2019-02-10T18:17:31.880Z,95056.13
2019-02-10T18:20:13.387Z,95058.91
2019-02-10T18:23:13.007Z,95046.98
2019-02-10T18:26:09.431Z,95058.92
2019-02-10T18:28:58.187Z,95065.92
2019-02-10T18:31:48.641Z,95070.30
2019-02-10T18:34:29.970Z,95062.36
2019-02-10T18:37:23.675Z,95049.82
2019-02-10T18:40:18.799Z,95054.12
2019-02-10T18:43:08.788Z,95051.45
2019-02-10T18:46:07.672Z,95046.67
2019-02-10T18:48:57.438Z,95042.30
2019-02-10T18:51:40.262Z,95033.06
2019-02-10T18:54:29.867Z,95027.41
2019-02-10T18:57:19.824Z,95033.03
2019-02-10T19:00:29.498Z,95034.13
2019-02-10T19:03:06.518Z,95032.70
2019-02-10T19:05:55.872Z,95032.70
2019-02-10T19:08:48.604Z,95038.66
2019-02-10T19:11:50.731Z,95054.89
2019-02-10T19:14:46.843Z,95054.89
2019-02-10T19:17:36.085Z,95048.84
2019-02-10T19:20:27.903Z,95049.09
2019-02-10T19:23:10.871Z,95049.41
2019-02-10T19:26:15.869Z,95040.34
2019-02-10T19:29:04.977Z,95038.11
2019-02-10T19:31:58.210Z,95038.11
2019-02-10T19:34:54.873Z,95046.17
2019-02-10T19:37:52.821Z,95041.57
2019-02-10T19:40:48.452Z,95041.57
2019-02-10T19:43:36.907Z,95049.46
2019-02-10T19:46:26.682Z,95043.72
2019-02-10T19:49:22.026Z,95040.34
2019-02-10T19:52:24.600Z,95040.59
2019-02-10T19:55:15.182Z,95046.42
2019-02-10T19:58:05.505Z,95049.75
2019-02-10T20:00:47.065Z,95040.42
2019-02-10T20:03:38.321Z,95028.65
2019-02-10T20:06:17.053Z,95018.67
2019-02-10T20:09:10.570Z,95018.67
2019-02-10T20:12:04.364Z,95013.27
2019-02-10T20:14:45.078Z,95017.84
2019-02-10T20:17:42.110Z,95016.09
2019-02-10T20:20:29.712Z,95012.13
2019-02-10T20:23:25.697Z,95001.00
2019-02-10T20:26:18.941Z,94991.84
2019-02-10T20:29:07.198Z,95004.25
2019-02-10T20:31:50.838Z,95003.20
2019-02-10T20:34:42.396Z,95004.91
2019-02-10T20:37:42.405Z,95002.13
2019-02-10T20:40:30.247Z,94991.33
2019-02-10T20:43:32.490Z,94991.33
2019-02-10T20:46:36.288Z,94993.78
2019-02-10T20:49:38.707Z,94993.60
2019-02-10T20:52:27.467Z,94979.20
2019-02-10T20:55:13.462Z,94979.20
2019-02-10T20:58:01.302Z,94991.27
2019-02-10T21:00:58.019Z,94977.30
2019-02-10T21:03:50.472Z,94988.65
2019-02-10T21:06:40.777Z,94987.56
2019-02-10T21:09:20.331Z,94962.78
2019-02-10T21:12:11.771Z,94973.34
2019-02-10T21:15:02.154Z,94961.10
2019-02-10T21:17:51.826Z,94937.23
2019-02-10T21:20:42.463Z,94962.20
2019-02-10T21:23:38.267Z,94962.20
2019-02-10T21:26:33.868Z,94946.80
2019-02-10T21:29:25.989Z,94942.27
2019-02-10T21:32:13.466Z,94939.99
2019-02-10T21:34:48.742Z,94934.08
2019-02-10T21:37:23.227Z,94944.88
2019-02-10T21:40:14.634Z,94932.80
2019-02-10T21:43:01.556Z,94931.66
2019-02-10T21:45:50.171Z,94921.72
2019-02-10T21:48:26.176Z,94934.16
2019-02-10T21:50:56.008Z,94943.00
2019-02-10T21:53:25.699Z,94930.09
2019-02-10T21:55:55.402Z,94937.27
2019-02-10T21:58:25.061Z,94943.27
2019-02-10T22:00:54.805Z,94925.42
2019-02-10T22:03:24.520Z,94905.05
2019-02-10T22:05:54.148Z,94915.80
2019-02-10T22:08:23.821Z,94906.83
2019-02-10T22:10:53.582Z,94898.48
2019-02-10T22:13:23.305Z,94921.08
2019-02-10T22:15:52.934Z,94909.45
2019-02-10T22:18:22.590Z,94880.63
2019-02-10T22:20:52.219Z,94890.55
2019-02-10T22:23:21.935Z,94898.02
2019-02-10T22:25:51.775Z,94894.41
2019-02-10T22:28:21.569Z,94892.33
2019-02-10T22:30:51.414Z,94896.05
2019-02-10T22:33:21.172Z,94886.69
2019-02-10T22:35:50.878Z,94881.59
2019-02-10T22:38:20.408Z,94868.86
2019-02-10T22:40:50.034Z,94870.51
2019-02-10T22:43:19.761Z,94867.70
2019-02-10T22:45:49.642Z,94867.89
2019-02-10T22:48:19.312Z,94867.09
2019-02-10T22:50:49.114Z,94861.59
2019-02-10T22:53:18.861Z,94871.08
2019-02-10T22:55:48.423Z,94872.44
2019-02-10T22:58:18.180Z,94873.73
2019-02-10T23:00:59.017Z,94857.19
2019-02-10T23:03:28.885Z,94852.73
2019-02-10T23:05:58.463Z,94866.17
2019-02-10T23:08:28.501Z,94851.16
2019-02-10T23:10:58.222Z,94851.16
2019-02-10T23:13:28.002Z,94867.20
2019-02-10T23:15:57.660Z,94861.20
2019-02-10T23:18:27.381Z,94856.06
2019-02-10T23:20:57.080Z,94842.42
2019-02-10T23:23:26.706Z,94852.91
2019-02-10T23:25:56.536Z,94864.78
2019-02-10T23:28:26.405Z,94857.56
2019-02-10T23:30:56.136Z,94862.53
2019-02-10T23:33:25.967Z,94856.28
2019-02-10T23:35:55.680Z,94851.73
2019-02-10T23:38:25.522Z,94841.16
2019-02-10T23:40:55.199Z,94832.85
2019-02-10T23:43:24.775Z,94839.52
2019-02-10T23:45:54.647Z,94844.97
2019-02-10T23:48:24.332Z,94820.43
2019-02-10T23:50:53.944Z,94817.77
2019-02-10T23:53:23.639Z,94836.05
2019-02-10T23:55:53.362Z,94835.59
2019-02-10T23:58:23.130Z,94839.98
